METAR Data
IDs: Format: Raw Decoded Include TAF

Data at: 1900 UTC 16 Oct 2021

KOCH 161856Z AUTO 01008G14KT 10SM CLR 23/02 A3028 RMK AO2 SLP256 T02280022 PWINO
KOCH 161756Z AUTO 02007KT 10SM CLR 22/04 A3031 RMK AO2 SLP265 T02220039 10222 20089 58011
KOCH 161656Z AUTO 03008KT 350V070 10SM CLR 21/03 A3034 RMK AO2 SLP274 T02060033 PWINO
KOCH 161556Z AUTO VRB06KT 10SM CLR 19/05 A3034 RMK AO2 SLP277 T01940050 PWINO $
KOCH 161456Z AUTO VRB06KT 10SM CLR 17/07 A3034 RMK AO2 SLP278 T01720067 52016 PWINO $
KOCH 161424Z AUTO 36006KT 10SM FEW002 16/08 A3034 RMK AO2 PWINO $
KOCH 161356Z AUTO 33005KT 10SM CLR 13/09 A3033 RMK AO2 SLP273 T01330089 PWINO $
KOCH 161256Z AUTO 33003KT 10SM CLR 09/08 A3031 RMK AO2 SLP266 T00940083 PWINO $
KOCH 161156Z AUTO 34003KT 10SM CLR 11/08 A3029 RMK AO2 SLP261 T01060078 10172 20100 53021 PWINO $
KOCH 161056Z AUTO 36004KT 10SM CLR 13/07 A3027 RMK AO2 SLP252 T01280072 PWINO $
KOCH 160956Z AUTO 36006KT 10SM CLR 14/07 A3025 RMK AO2 SLP244 T01390067 PWINO $
KOCH 160856Z AUTO 36005KT 10SM CLR 14/08 A3023 RMK AO2 SLP240 T01440078 51009 PWINO $
KOCH 160756Z AUTO 35007KT 10SM CLR 14/08 A3022 RMK AO2 SLP237 T01440078 PWINO $
KOCH 160656Z AUTO 36006KT 10SM CLR 16/07 A3021 RMK AO2 SLP233 T01610072 PWINO $
KOCH 160556Z AUTO 35008KT 10SM CLR 17/08 A3020 RMK AO2 SLP229 T01720078 10261 20172 403170172 51031 PWINO $
KOCH 160456Z AUTO 35009KT 10SM CLR 18/09 A3019 RMK AO2 SLP223 T01830089 PWINO
KOCH 160356Z AUTO 35016G20KT 10SM CLR 19/11 A3015 RMK AO2 SLP211 T01940106 PWINO
KOCH 160256Z AUTO 34012G19KT 10SM CLR 21/14 A3011 RMK AO2 SLP198 T02060139 51043 PWINO $
KOCH 160156Z AUTO 34011KT 10SM CLR 22/16 A3008 RMK AO2 PK WND 34026/0103 SLP187 T02170156 PWINO $
KOCH 160056Z AUTO 34013G20KT 10SM SCT029 23/18 A3004 RMK AO2 PRESRR SLP173 T02330178 PWINO $
KOCH 152356Z AUTO 33011G17KT 10SM CLR 26/19 A2998 RMK AO2 SLP153 T02610189 10317 20261 53020 PWINO $
KOCH 152256Z AUTO 33013KT 10SM CLR 28/21 A2994 RMK AO2 SLP139 T02830206 PWINO $
KOCH 152156Z AUTO 31010KT 10SM FEW035 SCT060 30/22 A2993 RMK AO2 SLP134 T03000222 PWINO $
KOCH 152056Z AUTO 31010KT 10SM FEW034 BKN046 BKN110 28/22 A2992 RMK AO2 SLP133 T02780217 55009 PWINO $
KOCH 151956Z AUTO 30012G15KT 10SM SCT040 32/22 A2991 RMK AO2 SLP130 T03170217 PWINO $
KOCH 151856Z AUTO 25007KT 10SM SCT042 31/21 A2993 RMK AO2 SLP135 T03060211 PWINO $
KOCH 151756Z AUTO 28009KT 10SM FEW032 29/22 A2995 RMK AO2 SLP142 T02890222 10300 20233 58005 PWINO
KOCH 151704Z AUTO 26009KT 10SM SCT028 29/23 A2996 RMK AO2 PWINO
KOCH 151656Z AUTO 22009KT 10SM FEW021 BKN028 29/23 A2996 RMK AO2 SLP146 T02890228 PWINO
KOCH 151644Z AUTO 23008KT 10SM SCT021 29/23 A2997 RMK AO2 PWINO
KOCH 151632Z AUTO 26011G15KT 10SM BKN023 28/23 A2997 RMK AO2 PWINO
KOCH 151622Z AUTO 22011KT 10SM SCT020 28/23 A2997 RMK AO2 PWINO
KOCH 151611Z AUTO 19012G16KT 10SM BKN017 BKN023 BKN045 28/24 A2996 RMK AO2 PWINO
KOCH 151556Z AUTO 20009KT 10SM BKN014 BKN047 28/24 A2997 RMK AO2 SLP148 T02780239 PWINO
KOCH 151522Z AUTO 20005KT 7SM BKN010 BKN014 OVC041 26/24 A2997 RMK AO2 PWINO
KOCH 151456Z AUTO 24007KT 10SM OVC008 26/24 A2997 RMK AO2 SLP148 T02560239 53018 PWINO
KOCH 151437Z AUTO VRB04KT 10SM OVC006 24/23 A2996 RMK AO2 CIG 004V009 PWINO
KOCH 151356Z AUTO 19008KT 9SM OVC004 24/23 A2994 RMK AO2 SLP139 T02390233 PWINO
KOCH 151256Z AUTO 19007KT 7SM OVC004 23/23 A2992 RMK AO2 SLP135 T02330228 PWINO
KOCH 151156Z AUTO 20005KT 9SM OVC004 23/23 A2991 RMK AO2 SLP130 70012 T02330228 10233 20228 53008 PWINO
KOCH 151056Z AUTO 17007KT 9SM OVC004 23/23 A2990 RMK AO2 SLP126 T02330228 PWINO
KOCH 150956Z AUTO 17006KT 9SM OVC004 23/23 A2989 RMK AO2 SLP123 T02330228 PWINO
KOCH 150856Z AUTO 17005KT 10SM OVC004 23/23 A2989 RMK AO2 SLP122 T02330228 58006 PWINO
KOCH 150813Z AUTO 14005KT 9SM BKN004 BKN025 BKN044 23/23 A2989 RMK AO2 CIG 003V010 PWINO
KOCH 150756Z AUTO 14005KT 10SM FEW006 SCT016 BKN027 23/23 A2990 RMK AO2 SLP125 T02280228 PWINO
KOCH 150714Z AUTO 14004KT 9SM SCT016 BKN029 BKN047 23/22 A2990 RMK AO2 PWINO